| time (UTC) | temp F | wind direction | speed knots | gust knots | rain 1hr in | rain 24hr in | rain mn in | humidity % | barometer mb |
| 20260503184551 | 61 | 323 | 7.0 | 13.9 | 0.00 | 0.01 | 0.00 | 50 | 1015.5 |
| 20260503183101 | 61 | 319 | 5.2 | 12.2 | 0.00 | 0.01 | 0.00 | 47 | 1015.6 |
| 20260503181555 | 60 | 279 | 2.6 | 15.6 | 0.00 | 0.01 | 0.00 | 50 | 1015.7 |
| 20260503180047 | 60 | 330 | 8.7 | 13.9 | 0.00 | 0.01 | 0.00 | 45 | 1015.8 |
| 20260503174540 | 60 | 332 | 7.8 | 13.9 | 0.00 | 0.03 | 0.00 | 48 | 1015.7 |
| 20260503173107 | 59 | 352 | 7.0 | 15.6 | 0.00 | 0.03 | 0.00 | 47 | 1015.8 |
| 20260503171548 | 59 | 307 | 6.1 | 13.9 | 0.00 | 0.03 | 0.00 | 45 | 1016.0 |
| 20260503081538 | 48 | 234 | 0.0 | 2.6 | 0.00 | 0.13 | 0.00 | 88 | 1012.1 |
| 20260503071543 | 48 | 273 | 0.9 | 2.6 | 0.00 | 0.13 | 0.00 | 88 | 1011.7 |
| 20260503054545 | 50 | 0 | 0.9 | 1.7 | 0.00 | 0.13 | 0.00 | 89 | 1011.3 |
| 20260503053041 | 50 | 244 | 0.0 | 2.6 | 0.00 | 0.13 | 0.00 | 89 | 1011.4 |
| 20260503051539 | 51 | 232 | 0.9 | 3.5 | 0.00 | 0.13 | 0.00 | 88 | 1011.5 |
| 20260503050047 | 51 | 242 | 0.9 | 2.6 | 0.00 | 0.13 | 0.00 | 88 | 1011.2 |
| 20260503044544 | 51 | 236 | 0.9 | 2.6 | 0.00 | 0.13 | 0.00 | 89 | 1011.4 |
| 20260503043044 | 51 | 246 | 0.9 | 2.6 | 0.00 | 0.13 | 0.00 | 87 | 1011.4 |
| 20260503041540 | 52 | 252 | 0.9 | 3.5 | 0.00 | 0.13 | 0.00 | 87 | 1011.4 |
| 20260503040053 | 52 | 235 | 0.9 | 2.6 | 0.00 | 0.13 | 0.00 | 87 | 1011.3 |
| 20260503034559 | 52 | 254 | 0.9 | 2.6 | 0.00 | 0.13 | 0.13 | 87 | 1011.2 |
| 20260503033046 | 52 | 225 | 1.7 | 3.5 | 0.00 | 0.13 | 0.13 | 84 | 1011.3 |
| 20260503031545 | 52 | 242 | 0.9 | 2.6 | 0.00 | 0.13 | 0.13 | 86 | 1011.3 |
| 20260503030052 | 52 | 237 | 0.9 | 2.6 | 0.00 | 0.13 | 0.13 | 89 | 1011.4 |
| 20260503024551 | 52 | 244 | 0.9 | 2.6 | 0.00 | 0.13 | 0.13 | 88 | 1011.2 |
| 20260503023045 | 53 | 0 | 0.0 | 2.6 | 0.00 | 0.13 | 0.13 | 89 | 1011.2 |
| 20260503021545 | 53 | 254 | 0.9 | 2.6 | 0.00 | 0.13 | 0.13 | 88 | 1011.2 |
| 20260503020046 | 53 | 235 | 0.9 | 1.7 | 0.00 | 0.13 | 0.13 | 86 | 1011.3 |
| 20260503014545 | 54 | 277 | 0.0 | 1.7 | 0.00 | 0.13 | 0.13 | 86 | 1011.3 |
| 20260503013040 | 55 | 246 | 0.9 | 3.5 | 0.00 | 0.13 | 0.13 | 84 | 1011.3 |
| 20260503011535 | 56 | 10 | 0.0 | 3.5 | 0.00 | 0.13 | 0.13 | 81 | 1010.8 |
| 20260503010045 | 56 | 28 | 1.7 | 5.2 | 0.00 | 0.13 | 0.13 | 80 | 1010.6 |
| 20260503004543 | 55 | 37 | 3.5 | 9.6 | 0.00 | 0.13 | 0.13 | 84 | 1010.6 |
| 20260503003043 | 55 | 242 | 0.9 | 1.7 | 0.00 | 0.13 | 0.13 | 84 | 1010.3 |
| 20260503001535 | 56 | 261 | 0.9 | 5.2 | 0.00 | 0.13 | 0.13 | 79 | 1010.3 |
| 20260503000045 | 56 | 281 | 3.5 | 7.0 | 0.00 | 0.13 | 0.13 | 81 | 1010.1 |
| 20260502234543 | 55 | 240 | 0.9 | 4.3 | 0.00 | 0.14 | 0.13 | 87 | 1010.2 |
| 20260502233045 | 55 | 258 | 0.9 | 3.5 | 0.00 | 0.14 | 0.13 | 88 | 1010.0 |
| 20260502231555 | 56 | 269 | 0.9 | 2.6 | 0.00 | 0.14 | 0.13 | 86 | 1009.6 |
| 20260502230047 | 57 | 0 | 0.9 | 4.3 | 0.00 | 0.14 | 0.13 | 83 | 1009.4 |
| 20260502224544 | 56 | 341 | 1.7 | 3.5 | 0.00 | 0.14 | 0.13 | 82 | 1009.6 |
| 20260502223043 | 57 | 5 | 0.9 | 3.5 | 0.00 | 0.14 | 0.13 | 83 | 1009.7 |
| 20260502221536 | 57 | 334 | 1.7 | 4.3 | 0.00 | 0.14 | 0.13 | 82 | 1009.8 |
| 20260502220050 | 56 | 19 | 1.7 | 3.5 | 0.00 | 0.14 | 0.13 | 82 | 1009.9 |
| 20260502214545 | 56 | 30 | 0.9 | 3.5 | 0.00 | 0.14 | 0.13 | 82 | 1009.8 |
| 20260502213045 | 56 | 360 | 1.7 | 4.3 | 0.00 | 0.14 | 0.13 | 81 | 1009.6 |
| 20260502211545 | 56 | 344 | 1.7 | 3.5 | 0.00 | 0.14 | 0.13 | 82 | 1009.7 |
| 20260502210038 | 56 | 338 | 1.7 | 3.5 | 0.00 | 0.14 | 0.13 | 83 | 1009.7 |
| 20260502204544 | 56 | 346 | 2.6 | 6.1 | 0.00 | 0.14 | 0.13 | 83 | 1009.5 |
| 20260502203049 | 56 | 5 | 2.6 | 5.2 | 0.00 | 0.14 | 0.13 | 83 | 1009.5 |
| 20260502201545 | 56 | 360 | 4.3 | 7.0 | 0.00 | 0.14 | 0.13 | 82 | 1009.7 |
| 20260502200038 | 56 | 42 | 6.1 | 9.6 | 0.00 | 0.14 | 0.13 | 83 | 1009.6 |
| 20260502194534 | 55 | 352 | 3.5 | 7.8 | 0.00 | 0.14 | 0.13 | 83 | 1009.7 |
| 20260502193043 | 55 | 42 | 3.5 | 8.7 | 0.00 | 0.14 | 0.13 | 83 | 1010.0 |
| 20260502191543 | 55 | 29 | 5.2 | 10.4 | 0.00 | 0.14 | 0.13 | 81 | 1010.4 |
| 20260502190039 | 55 | 14 | 6.1 | 9.6 | 0.01 | 0.14 | 0.13 | 82 | 1010.2 |